Marianne — VRFM5 — position and weather

sailwx.info

Track history (hours):
 
Tides and Currents Weather Stations Pressure Air Temp Water Temp Dewpoint Dewpoint Depression Visibility Wind Speed Wind Dir Waves Ship Positions

Marianne

Last reported at 2017-Jan-22 13:33 UTC. Time now 2017-Jan-22 14:22 UTC.
Position N 39°13' W 009°56'.

Length 97 m; draft 5.5 m.

Type: Ship (hazmat cat B). MMSI: 477560836.

Date/timePositionNaut miles runAvg speedWind from/ knotsBaromVisibWave heightAir tempDewpointWater temp
2017-Jan-22 13:33N 39°13' W 009°56'1312.7
2017-Jan-22 12:33N 38°60' W 009°56'1312.8
2017-Jan-22 11:33N 38°47' W 009°56'1312.6
2017-Jan-22 10:34N 38°35' W 009°54'1212.3
2017-Jan-22 09:34N 38°27' W 009°41'1212.2
2017-Jan-22 08:33N 38°19' W 009°29'1212.4
2017-Jan-22 07:33N 38°11' W 009°17'1212.2
2017-Jan-22 06:33N 38°04' W 009°05'1211.9
2017-Jan-22 05:33N 37°55' W 008°54'2 1.8
2017-Jan-22 04:33N 37°57' W 008°53'0 0.0
2017-Jan-22 03:33N 37°57' W 008°53'0 0.0
2017-Jan-22 02:32N 37°57' W 008°53'0 0.0
2017-Jan-22 01:32N 37°57' W 008°53'0 0.0
2017-Jan-22 00:32N 37°57' W 008°53'0 0.0
2017-Jan-21 23:32N 37°57' W 008°53'0 0.0
2017-Jan-21 22:32N 37°57' W 008°53'0 0.0
2017-Jan-21 21:32N 37°57' W 008°53'0 0.0
2017-Jan-21 20:32N 37°57' W 008°53'0 0.0
2017-Jan-21 19:32N 37°57' W 008°53'0 0.0
2017-Jan-21 18:32N 37°57' W 008°53'0 0.0
2017-Jan-21 17:32N 37°57' W 008°53'0 0.0
2017-Jan-21 16:32N 37°57' W 008°53'0 0.0
2017-Jan-21 15:32N 37°57' W 008°53'0 0.0
2017-Jan-21 14:32N 37°57' W 008°53'0 0.0
2017-Jan-21 13:32N 37°57' W 008°53'0 0.0
2017-Jan-21 12:32N 37°57' W 008°53'0 0.0
2017-Jan-21 11:32N 37°57' W 008°53'0 0.0
2017-Jan-21 10:32N 37°57' W 008°53'0 0.0
2017-Jan-21 09:32N 37°57' W 008°53'0 0.0
2017-Jan-21 08:32N 37°57' W 008°53'2 1.8
2017-Jan-21 07:33N 37°55' W 008°52'0 0.5
2017-Jan-21 06:31N 37°55' W 008°52'0 0.0
2017-Jan-21 05:31N 37°55' W 008°52'0 0.0
2017-Jan-21 04:31N 37°55' W 008°52'0 0.0
2017-Jan-21 03:31N 37°55' W 008°52'0 0.0
2017-Jan-21 02:31N 37°55' W 008°52'0 0.0
2017-Jan-21 01:31N 37°55' W 008°52'0 0.0
2017-Jan-21 00:31N 37°55' W 008°52'0 0.0
2017-Jan-20 23:33N 37°55' W 008°52'1211.8
2017-Jan-20 22:33N 37°45' W 009°00'1413.6
2017-Jan-20 21:33N 37°33' W 009°09'  
2017-Jan-18 16:33N 38°19' W 010°05'1413.5
2017-Jan-18 15:33N 38°32' W 010°09'1313.2
2017-Jan-18 14:33N 38°45' W 010°12'1313.3
2017-Jan-18 13:33N 38°58' W 010°12'1313.1
2017-Jan-18 12:33N 39°11' W 010°12'  
2017-Jan-16 00:25N 50°11' W 001°54'910.3
2017-Jan-15 23:34N 50°14' W 001°40'9 9.3
2017-Jan-15 22:33N 50°16' W 001°26'3811.0
2017-Jan-15 19:06N 50°26' W 000°29'814.1
2017-Jan-15 18:33N 50°28' W 000°17'1414.3
2017-Jan-15 17:33N 50°32' E 000°04'1414.3
2017-Jan-15 16:33N 50°35' E 000°26'1313.3
2017-Jan-15 15:33N 50°42' E 000°45'1312.4
2017-Jan-15 14:32N 50°50' E 001°00'1111.0
2017-Jan-15 13:33N 50°57' E 001°13'1010.3
2017-Jan-15 12:33N 51°03' E 001°26'1212.3
2017-Jan-15 11:33N 51°11' E 001°41'1414.4
2017-Jan-15 10:33N 51°23' E 001°55'1515.0
2017-Jan-15 09:33N 51°35' E 002°09'12612.6
2017-Jan-14 23:29N 53°11' E 004°24'35510.5
2017-Jan-13 13:33N 58°00' E 010°28'10 9.7
2017-Jan-13 12:29N 57°55' E 010°44'9 9.9
2017-Jan-13 11:34N 57°45' E 010°46'8 8.1
2017-Jan-13 10:33N 57°47' E 010°31'11113.1
2017-Jan-13 02:06N 57°42' E 007°03'612.0
2017-Jan-13 01:33N 57°43' E 006°51'1211.6
2017-Jan-13 00:33N 57°45' E 006°30'1211.8
2017-Jan-12 23:33N 57°53' E 006°13'1211.5
2017-Jan-12 22:33N 58°00' E 005°57'2311.2
2017-Jan-12 20:31N 58°15' E 005°24'1110.8
2017-Jan-12 19:31N 58°22' E 005°09'1111.0
2017-Jan-12 18:33N 58°30' E 004°55'1110.9
2017-Jan-12 17:33N 58°38' E 004°40'  
Track history (hours):
 
Tides and Currents Weather Stations Pressure Air Temp Water Temp Dewpoint Dewpoint Depression Visibility Wind Speed Wind Dir Waves Ship Positions

Marianne

Last reported at 2017-Jan-22 13:33 UTC. Time now 2017-Jan-22 14:22 UTC.
Position N 39°13' W 009°56'.

Length 97 m; draft 5.5 m.

Type: Ship (hazmat cat B). MMSI: 477560836.

Date/timePositionNaut miles runAvg speedWind from/ knotsBaromVisibWave heightAir tempDewpointWater temp
2017-Jan-22 13:33N 39°13' W 009°56'1312.7
2017-Jan-22 12:33N 38°60' W 009°56'1312.8
2017-Jan-22 11:33N 38°47' W 009°56'1312.6
2017-Jan-22 10:34N 38°35' W 009°54'1212.3
2017-Jan-22 09:34N 38°27' W 009°41'1212.2
2017-Jan-22 08:33N 38°19' W 009°29'1212.4
2017-Jan-22 07:33N 38°11' W 009°17'1212.2
2017-Jan-22 06:33N 38°04' W 009°05'1211.9
2017-Jan-22 05:33N 37°55' W 008°54'2 1.8
2017-Jan-22 04:33N 37°57' W 008°53'0 0.0
2017-Jan-22 03:33N 37°57' W 008°53'0 0.0
2017-Jan-22 02:32N 37°57' W 008°53'0 0.0
2017-Jan-22 01:32N 37°57' W 008°53'0 0.0
2017-Jan-22 00:32N 37°57' W 008°53'0 0.0
2017-Jan-21 23:32N 37°57' W 008°53'0 0.0
2017-Jan-21 22:32N 37°57' W 008°53'0 0.0
2017-Jan-21 21:32N 37°57' W 008°53'0 0.0
2017-Jan-21 20:32N 37°57' W 008°53'0 0.0
2017-Jan-21 19:32N 37°57' W 008°53'0 0.0
2017-Jan-21 18:32N 37°57' W 008°53'0 0.0
2017-Jan-21 17:32N 37°57' W 008°53'0 0.0
2017-Jan-21 16:32N 37°57' W 008°53'0 0.0
2017-Jan-21 15:32N 37°57' W 008°53'0 0.0
2017-Jan-21 14:32N 37°57' W 008°53'0 0.0
2017-Jan-21 13:32N 37°57' W 008°53'0 0.0
2017-Jan-21 12:32N 37°57' W 008°53'0 0.0
2017-Jan-21 11:32N 37°57' W 008°53'0 0.0
2017-Jan-21 10:32N 37°57' W 008°53'0 0.0
2017-Jan-21 09:32N 37°57' W 008°53'0 0.0
2017-Jan-21 08:32N 37°57' W 008°53'2 1.8
2017-Jan-21 07:33N 37°55' W 008°52'0 0.5
2017-Jan-21 06:31N 37°55' W 008°52'0 0.0
2017-Jan-21 05:31N 37°55' W 008°52'0 0.0
2017-Jan-21 04:31N 37°55' W 008°52'0 0.0
2017-Jan-21 03:31N 37°55' W 008°52'0 0.0
2017-Jan-21 02:31N 37°55' W 008°52'0 0.0
2017-Jan-21 01:31N 37°55' W 008°52'0 0.0
2017-Jan-21 00:31N 37°55' W 008°52'0 0.0
2017-Jan-20 23:33N 37°55' W 008°52'1211.8
2017-Jan-20 22:33N 37°45' W 009°00'1413.6
2017-Jan-20 21:33N 37°33' W 009°09'  
2017-Jan-18 16:33N 38°19' W 010°05'1413.5
2017-Jan-18 15:33N 38°32' W 010°09'1313.2
2017-Jan-18 14:33N 38°45' W 010°12'1313.3
2017-Jan-18 13:33N 38°58' W 010°12'1313.1
2017-Jan-18 12:33N 39°11' W 010°12'  
2017-Jan-16 00:25N 50°11' W 001°54'910.3
2017-Jan-15 23:34N 50°14' W 001°40'9 9.3
2017-Jan-15 22:33N 50°16' W 001°26'3811.0
2017-Jan-15 19:06N 50°26' W 000°29'814.1
2017-Jan-15 18:33N 50°28' W 000°17'1414.3
2017-Jan-15 17:33N 50°32' E 000°04'1414.3
2017-Jan-15 16:33N 50°35' E 000°26'1313.3
2017-Jan-15 15:33N 50°42' E 000°45'1312.4
2017-Jan-15 14:32N 50°50' E 001°00'1111.0
2017-Jan-15 13:33N 50°57' E 001°13'1010.3
2017-Jan-15 12:33N 51°03' E 001°26'1212.3
2017-Jan-15 11:33N 51°11' E 001°41'1414.4
2017-Jan-15 10:33N 51°23' E 001°55'1515.0
2017-Jan-15 09:33N 51°35' E 002°09'12612.6
2017-Jan-14 23:29N 53°11' E 004°24'35510.5
2017-Jan-13 13:33N 58°00' E 010°28'10 9.7
2017-Jan-13 12:29N 57°55' E 010°44'9 9.9
2017-Jan-13 11:34N 57°45' E 010°46'8 8.1
2017-Jan-13 10:33N 57°47' E 010°31'11113.1
2017-Jan-13 02:06N 57°42' E 007°03'612.0
2017-Jan-13 01:33N 57°43' E 006°51'1211.6
2017-Jan-13 00:33N 57°45' E 006°30'1211.8
2017-Jan-12 23:33N 57°53' E 006°13'1211.5
2017-Jan-12 22:33N 58°00' E 005°57'2311.2
2017-Jan-12 20:31N 58°15' E 005°24'1110.8
2017-Jan-12 19:31N 58°22' E 005°09'1111.0
2017-Jan-12 18:33N 58°30' E 004°55'1110.9
2017-Jan-12 17:33N 58°38' E 004°40'  

Dump ship's entire track history